Time;durP1;ratioP1;P1;durP2;ratioP2;P2;SDS_P1;SDS_P2;PMS_P1;PMS_P2;Temp;Humidity;BMP_temperature;BMP_pressure;BME280_temperature;BME280_humidity;BME280_pressure;Samples;Min_cycle;Max_cycle;Signal;HPM_P1;HPM_P2
2022/04/08 00:00:37;;;;;;;;;;;;;;;7.06;69.52;97624.95;2180872;80;20127;-82
2022/04/08 00:03:38;;;;;;;;;;;;;;;7.16;69.26;97622.20;2187449;80;20492;-78
2022/04/08 00:06:39;;;;;;;;;;;;;;;7.24;69.41;97619.06;2188203;80;20117;-81
2022/04/08 00:09:40;;;;;;;;;;;;;;;7.30;68.70;97612.95;2179360;80;20130;-82
2022/04/08 00:12:41;;;;;;;;;;;;;;;7.38;68.01;97616.69;2178626;80;20154;-79
2022/04/08 00:15:41;;;;;;;;;;;;;;;7.42;66.97;97640.30;2178429;80;20154;-82
2022/04/08 00:18:42;;;;;;;;;;;;;;;7.42;65.89;97640.30;2184185;80;20121;-81
2022/04/08 00:21:43;;;;;;;;;;;;;;;7.36;64.86;97625.31;2178564;80;20192;-82
2022/04/08 00:24:44;;;;;;;;;;;;;;;7.26;65.20;97644.70;2176515;80;21158;-79
2022/04/08 00:27:45;;;;;;;;;;;;;;;7.15;64.27;97639.53;2177780;80;20163;-83
2022/04/08 00:30:46;;;;;;;;;;;;;;;7.09;64.21;97643.80;2180686;80;20120;-83
2022/04/08 00:33:47;;;;;;;;;;;;;;;7.05;63.18;97647.07;2182761;80;20152;-83
2022/04/08 00:36:48;;;;;;;;;;;;;;;6.99;63.72;97643.42;2183961;80;20173;-80
2022/04/08 00:39:49;;;;;;;;;;;;;;;6.88;64.44;97651.44;2179634;80;20206;-77
2022/04/08 00:42:50;;;;;;;;;;;;;;;6.81;64.19;97644.02;2180677;80;20132;-80
2022/04/08 00:45:51;;;;;;;;;;;;;;;6.78;64.42;97631.25;2183892;80;20145;-78
2022/04/08 00:48:52;;;;;;;;;;;;;;;6.81;64.54;97639.26;2180511;80;20138;-78
2022/04/08 00:51:53;;;;;;;;;;;;;;;6.81;64.11;97641.38;2183703;80;20217;-78
2022/04/08 00:54:54;;;;;;;;;;;;;;;6.87;63.91;97639.28;2180565;80;20133;-82
2022/04/08 00:57:55;;;;;;;;;;;;;;;6.88;64.23;97649.31;2184353;80;20166;-80
2022/04/08 01:00:55;;;;;;;;;;;;;;;6.83;64.40;97647.78;2184652;80;20482;-78
2022/04/08 01:03:57;;;;;;;;;;;;;;;6.77;65.16;97654.67;2176807;80;20165;-80
2022/04/08 01:06:59;;;;;;;;;;;;;;;6.66;65.34;97654.77;2190668;80;20141;-79
2022/04/08 01:09:59;;;;;;;;;;;;;;;6.63;65.40;97660.95;2201014;80;20390;-81
2022/04/08 01:13:00;;;;;;;;;;;;;;;6.58;65.46;97657.59;2195772;80;20211;-78
2022/04/08 01:16:06;;;;;;;;;;;;;;;6.56;65.77;97652.22;2195115;80;20184;-78
2022/04/08 01:19:07;;;;;;;;;;;;;;;6.56;65.44;97658.33;2193687;80;20120;-79
2022/04/08 01:22:08;;;;;;;;;;;;;;;6.59;65.43;97645.22;2200363;80;20506;-81
2022/04/08 01:25:11;;;;;;;;;;;;;;;6.59;65.35;97651.33;2199999;80;20254;-79
2022/04/08 01:28:12;;;;;;;;;;;;;;;6.62;65.04;97664.61;2193101;80;20506;-80
2022/04/08 01:31:13;;;;;;;;;;;;;;;6.63;64.94;97668.86;2200478;80;20147;-81
2022/04/08 01:34:14;;;;;;;;;;;;;;;6.64;65.05;97658.61;2196304;80;20129;-77
2022/04/08 01:37:15;;;;;;;;;;;;;;;6.64;64.85;97664.69;2194564;80;20122;-80
2022/04/08 01:40:17;;;;;;;;;;;;;;;6.65;64.77;97664.20;2196546;80;20169;-79
2022/04/08 01:43:18;;;;;;;;;;;;;;;6.64;64.84;97674.42;2194494;80;20145;-79
2022/04/08 01:46:19;;;;;;;;;;;;;;;6.62;64.51;97665.93;2197182;80;20163;-79
2022/04/08 01:49:20;;;;;;;;;;;;;;;6.62;64.64;97660.66;2193360;80;20152;-78
2022/04/08 01:52:21;;;;;;;;;;;;;;;6.59;64.60;97653.97;2196535;80;20163;-81
2022/04/08 01:55:22;;;;;;;;;;;;;;;6.53;64.67;97670.55;2199054;80;20162;-80
2022/04/08 01:58:23;;;;;;;;;;;;;;;6.45;64.68;97665.50;2196286;80;20114;-78
2022/04/08 02:01:23;;;;;;;;;;;;;;;6.39;64.79;97663.64;2198944;80;20459;-80
2022/04/08 02:04:26;;;;;;;;;;;;;;;6.36;64.97;97682.48;2195343;80;20129;-80
2022/04/08 02:07:27;;;;;;;;;;;;;;;6.31;64.79;97683.58;2193952;80;20173;-80
2022/04/08 02:10:27;;;;;;;;;;;;;;;6.28;64.86;97690.08;2193644;80;20179;-79
2022/04/08 02:13:28;;;;;;;;;;;;;;;6.23;64.71;97688.02;2192917;80;20124;-81
2022/04/08 02:16:29;;;;;;;;;;;;;;;6.21;64.68;97693.98;2194044;80;20531;-79
2022/04/08 02:19:30;;;;;;;;;;;;;;;6.18;64.57;97703.60;2194030;80;20152;-79
2022/04/08 02:22:32;;;;;;;;;;;;;;;6.16;64.57;97710.07;2188119;80;20295;-78
2022/04/08 02:25:33;;;;;;;;;;;;;;;6.13;64.53;97694.16;2193744;80;20529;-78
2022/04/08 02:28:34;;;;;;;;;;;;;;;6.12;64.57;97697.81;2189828;80;20129;-80
2022/04/08 02:31:35;;;;;;;;;;;;;;;6.09;64.33;97707.42;2195360;80;20130;-81
2022/04/08 02:34:37;;;;;;;;;;;;;;;6.11;64.21;97711.16;2186850;80;20149;-79
2022/04/08 02:37:39;;;;;;;;;;;;;;;6.09;64.23;97721.91;2192507;80;20128;-79
2022/04/08 02:40:40;;;;;;;;;;;;;;;6.07;64.06;97719.96;2193066;80;20162;-79
2022/04/08 02:43:40;;;;;;;;;;;;;;;6.09;63.99;97726.36;2190693;80;20478;-80
2022/04/08 02:46:41;;;;;;;;;;;;;;;6.09;63.83;97719.78;2195975;80;20149;-80
2022/04/08 02:49:44;;;;;;;;;;;;;;;6.17;63.83;97721.73;2191509;80;20170;-80
2022/04/08 02:52:45;;;;;;;;;;;;;;;6.18;63.54;97727.81;2188935;80;20205;-78
2022/04/08 02:55:46;;;;;;;;;;;;;;;6.18;63.58;97727.30;2196662;80;20488;-78
2022/04/08 02:58:49;;;;;;;;;;;;;;;6.14;63.49;97734.46;2190388;80;20173;-78
2022/04/08 03:01:50;;;;;;;;;;;;;;;6.11;63.48;97735.69;2188815;80;20161;-80
2022/04/08 03:04:51;;;;;;;;;;;;;;;6.08;63.50;97743.15;2194384;80;20170;-80
2022/04/08 03:07:52;;;;;;;;;;;;;;;6.05;63.56;97746.98;2187286;80;20157;-78
2022/04/08 03:10:53;;;;;;;;;;;;;;;6.04;63.71;97752.75;2178315;80;20106;-78
2022/04/08 03:13:59;;;;;;;;;;;;;;;6.01;63.75;97746.56;2180623;80;20116;-80
2022/04/08 03:16:57;;;;;;;;;;;;;;;6.00;63.82;97757.31;2178242;80;20147;-77
2022/04/08 03:19:58;;;;;;;;;;;;;;;5.98;64.04;97756.69;2181395;80;20138;-78
2022/04/08 03:22:59;;;;;;;;;;;;;;;5.95;64.14;97755.76;2177672;80;20210;-79
2022/04/08 03:26:00;;;;;;;;;;;;;;;5.86;64.36;97748.50;2183205;80;20119;-79
2022/04/08 03:29:01;;;;;;;;;;;;;;;5.92;64.52;97752.17;2186232;80;20310;-79
2022/04/08 03:32:02;;;;;;;;;;;;;;;5.93;64.81;97753.78;2179608;80;20110;-80
2022/04/08 03:35:06;;;;;;;;;;;;;;;5.91;64.87;97755.28;2181195;80;20154;-80
2022/04/08 03:38:07;;;;;;;;;;;;;;;5.93;64.92;97764.31;2185965;80;20148;-80
2022/04/08 03:41:08;;;;;;;;;;;;;;;5.95;64.80;97767.61;2176921;80;20169;-79
2022/04/08 03:44:09;;;;;;;;;;;;;;;5.98;64.93;97777.74;2179385;80;20130;-82
2022/04/08 03:58:46;;;;;;;5.05;1.90;;;;;;;6.54;63.50;97780.22;2284983;77;22654;-74
2022/04/08 04:01:49;;;;;;;3.40;1.70;;;;;;;6.55;63.11;97789.73;2200709;79;21070;-73
2022/04/08 04:04:55;;;;;;;4.60;1.85;;;;;;;6.55;61.77;97795.00;2220626;78;21033;-73
2022/04/08 04:07:58;;;;;;;5.70;2.50;;;;;;;6.63;61.78;97800.09;2215974;78;21639;-76
2022/04/08 04:11:00;;;;;;;7.35;1.77;;;;;;;6.71;60.82;97807.83;2235741;78;21060;-73
2022/04/08 04:14:03;;;;;;;3.35;1.70;;;;;;;6.81;59.19;97813.22;2232700;78;21027;-73
2022/04/08 04:17:07;;;;;;;7.10;1.57;;;;;;;6.89;58.88;97807.77;2189094;79;21083;-73
2022/04/08 04:20:10;;;;;;;5.00;1.70;;;;;;;6.98;58.27;97817.11;2214553;78;22222;-75
2022/04/08 04:23:16;;;;;;;3.72;1.62;;;;;;;7.02;58.83;97817.03;2213690;79;20974;-73
2022/04/08 04:26:22;;;;;;;8.43;1.67;;;;;;;7.05;58.28;97829.81;2217860;78;21669;-77
2022/04/08 04:29:24;;;;;;;8.80;1.70;;;;;;;7.06;58.21;97840.66;2226313;78;21028;-72
2022/04/08 04:32:32;;;;;;;3.55;1.52;;;;;;;7.07;58.41;97844.14;2225753;78;20993;-73
2022/04/08 04:35:39;;;;;;;4.87;1.57;;;;;;;7.07;57.78;97840.98;2226266;78;21060;-74
2022/04/08 04:38:41;;;;;;;4.55;1.50;;;;;;;7.08;57.96;97848.39;2222867;78;21053;-75
2022/04/08 04:41:48;;;;;;;6.60;2.00;;;;;;;7.06;57.07;97851.72;2219610;78;21001;-74
2022/04/08 04:44:55;;;;;;;8.98;1.55;;;;;;;7.07;57.55;97867.87;2223244;79;21057;-75
2022/04/08 04:47:59;;;;;;;5.10;1.50;;;;;;;7.07;57.64;97877.09;2224601;79;20995;-77
2022/04/08 04:51:02;;;;;;;4.50;1.12;;;;;;;7.06;57.86;97874.94;2213844;79;21018;-77
2022/04/08 04:54:14;;;;;;;4.70;1.65;;;;;;;7.09;57.67;97885.60;2218781;79;21076;-73
2022/04/08 04:57:18;;;;;;;6.17;1.67;;;;;;;7.09;57.92;97893.00;2216129;79;21070;-75
2022/04/08 05:00:19;;;;;;;4.30;1.52;;;;;;;7.10;57.65;97889.37;2236949;78;21057;-75
2022/04/08 05:03:23;;;;;;;4.97;1.77;;;;;;;7.12;57.47;97904.98;2211984;79;21033;-73
2022/04/08 05:06:25;;;;;;;7.58;1.42;;;;;;;7.16;57.25;97916.27;2210823;79;21077;-75
2022/04/08 05:09:29;;;;;;;6.30;1.50;;;;;;;7.15;57.15;97910.69;2208809;79;21101;-79
2022/04/08 05:12:32;;;;;;;5.15;1.70;;;;;;;7.15;57.54;97915.97;2212279;79;20978;-74
2022/04/08 05:15:38;;;;;;;4.95;1.30;;;;;;;7.16;57.53;97913.63;2201151;79;21524;-77
2022/04/08 05:18:43;;;;;;;3.77;1.40;;;;;;;7.19;57.74;97930.38;2231462;78;21033;-79
2022/04/08 05:21:45;;;;;;;4.20;1.72;;;;;;;7.19;57.94;97926.92;2230336;78;21025;-77
2022/04/08 05:24:50;;;;;;;6.17;1.70;;;;;;;7.21;58.04;97943.86;2239658;78;21026;-77
2022/04/08 05:27:54;;;;;;;3.33;1.45;;;;;;;7.20;58.24;97954.92;2207893;80;21028;-76
2022/04/08 05:30:59;;;;;;;2.77;1.27;;;;;;;7.20;58.09;97953.59;2205659;79;21067;-79
2022/04/08 05:34:07;;;;;;;4.72;1.85;;;;;;;7.21;58.09;97963.16;2199698;80;21045;-76
2022/04/08 05:37:09;;;;;;;7.15;1.82;;;;;;;7.22;57.99;97975.83;2207796;79;21181;-77
2022/04/08 05:40:25;;;;;;;2.98;1.27;;;;;;;7.19;58.36;97982.31;2212123;79;21534;-77
2022/04/08 05:43:31;;;;;;;3.37;1.25;;;;;;;7.16;58.38;97988.80;2202111;80;21053;-75
2022/04/08 05:46:32;;;;;;;4.20;1.35;;;;;;;7.16;58.51;97990.11;2221957;79;21074;-75
2022/04/08 05:49:35;;;;;;;4.92;1.55;;;;;;;7.15;59.10;97992.45;2236746;77;21115;-74
2022/04/08 05:52:41;;;;;;;2.70;1.40;;;;;;;7.18;59.14;97991.25;2201845;80;21064;-75
2022/04/08 05:55:45;;;;;;;5.55;1.37;;;;;;;7.21;59.40;98003.20;2207001;80;21017;-79
2022/04/08 05:58:51;;;;;;;4.15;1.70;;;;;;;7.23;59.40;97996.72;2203850;79;21037;-77
2022/04/08 06:01:53;;;;;;;2.20;1.37;;;;;;;7.26;59.27;98005.56;2209699;78;21585;-80
2022/04/08 06:04:58;;;;;;;3.85;1.70;;;;;;;7.29;59.50;98013.59;2208877;79;21027;-79
2022/04/08 06:08:05;;;;;;;4.83;1.70;;;;;;;7.30;59.13;98021.31;2230321;78;20934;-79
2022/04/08 06:11:08;;;;;;;5.03;2.02;;;;;;;7.34;59.49;98025.17;2241131;78;21599;-76
2022/04/08 06:14:11;;;;;;;5.90;1.67;;;;;;;7.39;59.41;98028.55;2231023;78;21065;-77
2022/04/08 06:17:20;;;;;;;5.42;1.60;;;;;;;7.42;59.20;98037.39;2232770;78;21544;-76
2022/04/08 06:20:22;;;;;;;3.67;1.37;;;;;;;7.48;59.21;98039.23;2238509;78;21036;-80
2022/04/08 06:23:32;;;;;;;3.83;1.60;;;;;;;7.56;59.07;98040.39;2213658;79;21037;-76
2022/04/08 06:26:36;;;;;;;1.80;1.40;;;;;;;7.64;59.09;98042.05;2216008;79;21120;-78
2022/04/08 06:29:40;;;;;;;3.80;1.37;;;;;;;7.69;58.54;98046.73;2187402;79;21009;-78
2022/04/08 06:32:46;;;;;;;6.25;2.00;;;;;;;7.75;58.24;98054.67;2216501;79;21039;-80
2022/04/08 06:35:49;;;;;;;7.08;3.10;;;;;;;7.78;58.23;98049.50;2216551;79;21878;-86
2022/04/08 06:38:53;;;;;;;7.97;2.00;;;;;;;7.79;58.45;98060.36;2215104;79;21052;-81
2022/04/08 06:41:58;;;;;;;3.67;1.77;;;;;;;7.83;58.59;98064.24;2218377;78;21089;-78
2022/04/08 06:45:08;;;;;;;3.02;1.60;;;;;;;7.92;57.95;98057.75;2195712;79;21096;-77
2022/04/08 06:48:11;;;;;;;2.50;1.57;;;;;;;7.99;58.39;98077.05;2211473;79;21063;-79
2022/04/08 06:51:14;;;;;;;2.98;1.95;;;;;;;8.04;57.88;98069.35;2211819;79;21822;-84
2022/04/08 06:54:22;;;;;;;3.95;1.87;;;;;;;8.09;57.99;98070.89;2205819;79;20989;-77
2022/04/08 06:57:24;;;;;;;2.33;1.55;;;;;;;8.15;58.43;98085.64;2210430;79;21040;-79
2022/04/08 07:00:28;;;;;;;2.85;1.80;;;;;;;8.26;57.58;98083.72;2206059;79;21441;-77
2022/04/08 07:03:31;;;;;;;5.17;1.98;;;;;;;8.33;57.58;98096.42;2218406;79;21041;-79
2022/04/08 07:06:36;;;;;;;3.85;1.57;;;;;;;8.35;57.42;98094.91;2216398;79;21010;-78
2022/04/08 07:09:37;;;;;;;7.12;2.62;;;;;;;8.32;57.27;98106.70;2215039;79;22264;-76
2022/04/08 07:12:40;;;;;;;6.03;1.75;;;;;;;8.28;57.21;98104.97;2190180;80;21009;-78
2022/04/08 07:15:45;;;;;;;2.60;1.50;;;;;;;8.28;56.72;98116.05;2196752;80;21553;-77
2022/04/08 07:18:49;;;;;;;4.30;1.72;;;;;;;8.25;56.12;98111.14;2197936;80;21017;-77
2022/04/08 07:21:51;;;;;;;2.92;1.57;;;;;;;8.22;56.59;98116.34;2192800;80;21560;-78
2022/04/08 07:24:54;;;;;;;4.67;1.90;;;;;;;8.21;56.66;98133.19;2190793;79;21030;-76
2022/04/08 07:28:01;;;;;;;4.03;1.90;;;;;;;8.21;57.16;98146.91;2190043;80;21104;-80
2022/04/08 07:31:06;;;;;;;5.50;2.95;;;;;;;8.22;57.21;98151.17;2194144;80;20998;-76
2022/04/08 07:34:10;;;;;;;3.67;1.75;;;;;;;8.26;56.70;98166.95;2198521;80;21041;-80
2022/04/08 07:37:30;;;;;;;7.78;2.52;;;;;;;8.33;55.30;98150.59;2198151;80;21040;-84
2022/04/08 07:40:32;;;;;;;5.50;1.98;;;;;;;8.39;56.01;98163.06;2190858;79;21029;-88
2022/04/08 07:43:36;;;;;;;4.78;1.87;;;;;;;8.41;56.10;98174.22;2194881;80;21037;-79
2022/04/08 07:46:37;;;;;;;3.50;1.45;;;;;;;8.34;56.26;98181.30;2195023;80;21061;-76
2022/04/08 07:49:42;;;;;;;3.30;1.40;;;;;;;8.27;56.33;98194.99;2195951;79;21035;-79
2022/04/08 07:52:49;;;;;;;6.33;2.22;;;;;;;8.22;56.09;98194.77;2197691;80;21002;-81
2022/04/08 07:55:55;;;;;;;4.45;1.75;;;;;;;8.20;56.49;98213.98;2199225;80;21031;-77
2022/04/08 07:58:57;;;;;;;4.90;2.65;;;;;;;8.25;56.32;98181.16;2194934;79;21083;-79
2022/04/08 08:02:01;;;;;;;3.40;1.70;;;;;;;8.35;56.43;98201.94;2195005;79;21076;-79
2022/04/08 08:05:04;;;;;;;1.92;1.47;;;;;;;8.40;56.52;98206.16;2196737;79;21064;-76
2022/04/08 08:08:06;;;;;;;3.12;1.70;;;;;;;8.47;55.55;98205.13;2198382;79;21057;-80
2022/04/08 08:11:11;;;;;;;4.47;1.62;;;;;;;8.51;55.93;98209.02;2197786;79;21028;-79
2022/04/08 08:14:12;;;;;;;3.22;1.62;;;;;;;8.58;56.15;98224.08;2193006;79;21040;-85
2022/04/08 08:17:14;;;;;;;5.60;2.67;;;;;;;8.62;56.05;98221.36;2193258;79;21528;-81
2022/04/08 08:20:23;;;;;;;5.95;2.70;;;;;;;8.61;55.38;98231.09;2195838;79;21022;-81
2022/04/08 08:23:30;;;;;;;4.95;1.60;;;;;;;8.64;55.39;98225.92;2193755;79;21037;-79
2022/04/08 08:26:34;;;;;;;3.92;2.00;;;;;;;8.73;55.36;98226.87;2195880;79;21001;-78
2022/04/08 08:29:35;;;;;;;5.22;2.00;;;;;;;8.91;54.63;98239.50;2195379;79;22354;-77
2022/04/08 08:32:39;;;;;;;3.20;1.55;;;;;;;8.95;54.97;98243.38;2194915;79;21070;-80
2022/04/08 08:35:45;;;;;;;5.70;2.17;;;;;;;8.93;54.97;98253.34;2195718;79;21605;-79
2022/04/08 08:38:52;;;;;;;4.62;2.08;;;;;;;8.91;55.06;98269.11;2201005;79;21538;-80
2022/04/08 08:41:56;;;;;;;3.10;1.12;;;;;;;8.79;53.42;98247.73;2193810;79;21515;-83
2022/04/08 08:44:59;;;;;;;6.05;2.58;;;;;;;8.69;54.19;98270.57;2195444;79;21047;-79
2022/04/08 08:48:04;;;;;;;3.05;1.17;;;;;;;8.60;54.20;98269.13;2198196;79;21035;-87
2022/04/08 08:51:06;;;;;;;6.08;1.60;;;;;;;8.51;54.24;98265.86;2195651;79;21041;-84
2022/04/08 08:54:12;;;;;;;4.75;2.45;;;;;;;8.50;54.58;98270.84;2197628;79;21447;-79
2022/04/08 08:57:20;;;;;;;4.08;1.52;;;;;;;8.46;54.87;98280.16;2196242;79;20965;-81
2022/04/08 09:00:25;;;;;;;5.17;2.05;;;;;;;8.37;54.56;98287.94;2176921;80;21100;-80
2022/04/08 09:03:29;;;;;;;2.27;1.42;;;;;;;8.36;55.67;98311.39;2206146;80;21564;-79
2022/04/08 09:06:41;;;;;;;2.50;1.40;;;;;;;8.32;56.47;98315.45;2214234;80;21795;-79
2022/04/08 09:09:48;;;;;;;3.87;1.70;;;;;;;8.29;57.16;98324.58;2211913;80;21053;-80
2022/04/08 09:12:56;;;;;;;2.62;1.37;;;;;;;8.32;57.58;98327.34;2213123;80;21505;-80
2022/04/08 09:16:03;;;;;;;4.42;1.40;;;;;;;8.37;57.18;98318.33;2210190;80;21519;-81
2022/04/08 09:19:14;;;;;;;1.95;1.40;;;;;;;8.41;57.46;98324.05;2209130;80;21008;-79
2022/04/08 09:22:20;;;;;;;3.70;1.30;;;;;;;8.41;57.31;98332.80;2209382;80;20981;-78
2022/04/08 09:25:30;;;;;;;2.40;1.70;;;;;;;8.32;58.15;98347.16;2205741;80;21398;-78
2022/04/08 09:28:37;;;;;;;2.17;1.60;;;;;;;8.14;59.04;98356.09;2194565;79;21097;-79
2022/04/08 09:31:43;;;;;;;4.08;1.90;;;;;;;7.93;60.19;98367.03;2209585;79;21043;-79
2022/04/08 09:34:48;;;;;;;2.52;1.80;;;;;;;7.64;61.31;98370.16;2184025;79;21591;-78
2022/04/08 09:38:01;;;;;;;2.35;1.75;;;;;;;7.49;62.15;98381.80;2226660;78;21390;-79
2022/04/08 09:41:10;;;;;;;2.33;1.62;;;;;;;7.40;62.58;98370.55;2236406;78;21020;-81
2022/04/08 09:44:16;;;;;;;7.28;2.62;;;;;;;7.43;62.35;98379.91;2203202;79;21522;-79
2022/04/08 09:47:17;;;;;;;4.72;2.15;;;;;;;7.85;63.55;98385.66;2199032;79;21088;-79
2022/04/08 09:50:21;;;;;;;3.55;1.70;;;;;;;8.74;63.48;98381.05;2201136;79;21506;-78
2022/04/08 09:53:26;;;;;;;6.17;2.30;;;;;;;9.06;61.63;98382.16;2242708;78;20974;-79
2022/04/08 09:56:29;;;;;;;5.58;2.05;;;;;;;9.06;61.60;98381.35;2242047;78;21670;-78
2022/04/08 09:59:36;;;;;;;3.72;1.80;;;;;;;9.13;61.51;98378.23;2238649;78;21641;-78
2022/04/08 10:02:49;;;;;;;4.12;2.17;;;;;;;9.25;61.46;98379.27;2249493;78;21479;-78
2022/04/08 10:05:50;;;;;;;3.35;1.85;;;;;;;9.34;60.66;98374.09;2248392;78;21072;-80
2022/04/08 10:08:58;;;;;;;3.05;2.02;;;;;;;9.32;60.17;98374.81;2249136;78;21047;-80
2022/04/08 10:12:31;;;;;;;2.87;2.15;;;;;;;9.25;59.31;98373.16;2246550;78;21012;-86
2022/04/08 10:15:40;;;;;;;3.83;1.70;;;;;;;9.33;59.68;98380.41;2247282;78;21057;-80
2022/04/08 10:18:44;;;;;;;3.58;2.02;;;;;;;9.34;59.14;98381.22;2241364;78;21071;-80
2022/04/08 10:22:00;;;;;;;2.90;1.80;;;;;;;9.44;58.77;98379.00;2238852;78;21028;-79
2022/04/08 10:25:10;;;;;;;4.50;1.90;;;;;;;10.01;60.25;98382.88;2242561;78;21116;-79
2022/04/08 10:28:15;;;;;;;2.20;1.70;;;;;;;10.36;58.53;98375.20;2238386;78;22017;-79
2022/04/08 10:31:26;;;;;;;8.53;2.55;;;;;;;10.35;58.04;98380.22;2244383;78;21068;-80
2022/04/08 10:34:27;;;;;;;3.27;1.95;;;;;;;10.28;57.33;98377.07;2247149;78;20993;-81
2022/04/08 10:37:30;;;;;;;2.85;1.70;;;;;;;10.29;57.20;98369.93;2248764;78;21028;-86
2022/04/08 10:40:43;;;;;;;2.55;1.55;;;;;;;10.38;57.09;98364.70;2244631;78;21005;-79
2022/04/08 10:43:52;;;;;;;3.92;1.75;;;;;;;10.30;56.56;98365.76;2242324;78;20935;-79
2022/04/08 10:46:53;;;;;;;2.77;1.80;;;;;;;10.07;54.79;98346.80;2227551;78;21056;-80
2022/04/08 10:50:07;;;;;;;3.95;2.05;;;;;;;9.93;55.44;98361.89;2241388;78;21052;-79
2022/04/08 10:53:22;;;;;;;2.30;1.50;;;;;;;10.16;54.21;98369.91;2249038;78;21028;-80
2022/04/08 10:56:36;;;;;;;1.35;1.25;;;;;;;10.20;53.63;98361.87;2246804;78;21006;-80
2022/04/08 10:59:40;;;;;;;3.00;1.77;;;;;;;10.04;53.40;98379.81;2251157;78;21048;-80
2022/04/08 11:02:47;;;;;;;2.10;1.25;;;;;;;9.74;54.19;98367.52;2222355;78;21005;-79
2022/04/08 11:05:49;;;;;;;1.37;1.22;;;;;;;9.76;54.96;98362.81;2255628;78;21052;-79
2022/04/08 11:08:57;;;;;;;2.90;1.75;;;;;;;10.14;55.95;98360.05;2244361;78;21099;-79
2022/04/08 11:11:59;;;;;;;3.60;1.30;;;;;;;10.69;54.79;98353.38;2254708;78;20965;-79
2022/04/08 11:15:03;;;;;;;2.35;1.50;;;;;;;11.09;53.92;98349.20;2258106;78;21507;-80
2022/04/08 11:18:08;;;;;;;1.75;1.10;;;;;;;11.47;53.63;98337.73;2250775;78;21112;-82
2022/04/08 11:21:19;;;;;;;1.92;1.40;;;;;;;12.14;51.62;98349.16;2254298;78;21372;-79
2022/04/08 11:24:22;;;;;;;3.42;1.65;;;;;;;12.14;51.62;98349.16;2250735;78;21016;-79
2022/04/08 11:27:28;;;;;;;1.90;1.27;;;;;;;11.87;51.17;98351.53;2255034;78;21614;-79
2022/04/08 11:30:35;;;;;;;2.90;1.27;;;;;;;11.63;51.31;98356.32;2247071;78;21075;-80
2022/04/08 11:33:40;;;;;;;2.27;1.20;;;;;;;11.20;50.08;98344.53;2256149;78;21035;-79
2022/04/08 11:36:46;;;;;;;2.80;1.32;;;;;;;11.43;51.34;98364.41;2255093;78;21037;-79
2022/04/08 11:40:05;;;;;;;1.25;1.12;;;;;;;11.96;49.54;98337.97;2254027;78;21511;-81
2022/04/08 11:43:05;;;;;;;2.10;0.80;;;;;;;11.96;49.54;98337.97;2245804;78;21048;-86
2022/04/08 11:46:13;;;;;;;1.85;1.42;;;;;;;12.18;48.58;98364.44;2247955;78;21080;-79
2022/04/08 11:49:18;;;;;;;4.78;1.32;;;;;;;12.32;48.86;98359.80;2222384;78;20969;-79
2022/04/08 11:52:27;;;;;;;2.02;1.00;;;;;;;12.37;48.46;98354.64;2256144;78;21043;-80
2022/04/08 11:55:28;;;;;;;7.33;2.27;;;;;;;12.48;47.21;98335.28;2250697;78;21040;-81
2022/04/08 11:58:36;;;;;;;3.02;1.77;;;;;;;12.56;46.11;98328.33;2259384;78;21565;-80
2022/04/08 12:01:41;;;;;;;2.37;1.52;;;;;;;12.67;46.36;98328.59;2248056;78;21056;-80
2022/04/08 12:04:44;;;;;;;2.35;1.62;;;;;;;12.77;47.51;98329.70;2247651;78;21036;-81
2022/04/08 12:07:46;;;;;;;2.95;1.50;;;;;;;12.88;46.94;98335.31;2245736;78;21068;-80
2022/04/08 12:10:57;;;;;;;1.75;1.45;;;;;;;13.05;47.50;98334.16;2216847;78;21056;-78
2022/04/08 12:14:01;;;;;;;1.17;1.07;;;;;;;13.14;45.94;98326.14;2234581;78;21136;-78
2022/04/08 12:17:05;;;;;;;3.52;1.25;;;;;;;12.89;44.08;98327.08;2211098;78;21040;-80
2022/04/08 12:20:19;;;;;;;3.72;1.25;;;;;;;12.61;44.67;98336.95;2244538;78;21016;-79
2022/04/08 12:23:25;;;;;;;4.70;1.65;;;;;;;12.47;44.05;98332.83;2216578;78;20991;-79
2022/04/08 12:26:36;;;;;;;3.67;1.35;;;;;;;12.50;44.82;98331.05;2197491;78;21013;-78
2022/04/08 12:29:39;;;;;;;;;;;;;;;12.55;44.76;98320.03;2217977;78;21063;-81
2022/04/08 12:32:43;;;;;;;1.92;1.20;;;;;;;12.63;45.57;98315.46;2243766;78;20207;-86
2022/04/08 12:35:48;;;;;;;2.20;1.20;;;;;;;12.69;45.11;98319.88;2237028;78;21437;-79
2022/04/08 12:38:57;;;;;;;5.60;1.50;;;;;;;12.69;44.70;98315.36;2208266;79;21039;-78
2022/04/08 12:42:00;;;;;;;5.25;1.85;;;;;;;12.69;45.00;98310.56;2207624;79;21013;-79
2022/04/08 12:45:05;;;;;;;2.58;1.30;;;;;;;12.63;45.03;98318.92;2217093;79;21083;-78
2022/04/08 12:48:10;;;;;;;3.65;1.40;;;;;;;12.74;44.60;98302.73;2247465;78;21527;-79
2022/04/08 12:51:17;;;;;;;3.08;1.62;;;;;;;12.79;43.36;98306.86;2237211;78;21080;-81
2022/04/08 12:54:21;;;;;;;1.50;1.15;;;;;;;12.72;43.93;98302.94;2215279;79;21037;-80
2022/04/08 12:57:23;;;;;;;5.25;1.60;;;;;;;12.66;44.04;98292.39;2211042;79;21073;-78
2022/04/08 13:00:33;;;;;;;1.85;1.10;;;;;;;12.61;43.97;98289.59;2189888;79;21147;-80
2022/04/08 13:03:37;;;;;;;2.65;1.20;;;;;;;12.52;44.06;98288.56;2155663;80;20976;-80
2022/04/08 13:06:39;;;;;;;2.72;1.32;;;;;;;12.60;44.08;98283.98;2177110;81;21040;-78
2022/04/08 13:09:43;;;;;;;2.95;1.60;;;;;;;12.60;44.86;98285.31;2183573;80;21088;-78
2022/04/08 13:12:46;;;;;;;2.08;1.62;;;;;;;12.65;43.71;98280.94;2187564;81;21040;-78
2022/04/08 13:15:52;;;;;;;3.15;2.10;;;;;;;12.64;44.27;98281.16;2187265;79;21655;-78
2022/04/08 13:18:55;;;;;;;2.40;1.17;;;;;;;12.53;43.06;98280.89;2240845;78;21546;-86
2022/04/08 13:21:59;;;;;;;1.82;1.20;;;;;;;12.37;43.09;98265.54;2196713;79;21046;-78
2022/04/08 13:25:03;;;;;;;1.32;1.22;;;;;;;12.36;43.56;98269.73;2230355;78;21061;-78
2022/04/08 13:28:05;;;;;;;3.17;1.20;;;;;;;12.42;43.19;98267.54;2224682;78;21002;-79
2022/04/08 13:31:11;;;;;;;4.47;2.02;;;;;;;12.43;43.83;98257.98;2197622;79;21073;-79
2022/04/08 13:34:17;;;;;;;2.02;1.25;;;;;;;12.46;43.06;98252.22;2233120;78;21047;-82
2022/04/08 13:37:24;;;;;;;2.15;1.05;;;;;;;12.43;43.15;98252.67;2227514;78;21503;-86
2022/04/08 13:40:27;;;;;;;4.85;1.57;;;;;;;12.46;43.38;98250.08;2236529;78;21029;-78
2022/04/08 13:43:30;;;;;;;3.17;1.82;;;;;;;12.50;43.39;98234.80;2232431;78;21475;-82
2022/04/08 13:46:39;;;;;;;3.55;1.72;;;;;;;12.51;43.74;98231.08;2190141;79;21085;-78
2022/04/08 13:49:43;;;;;;;4.65;1.67;;;;;;;12.56;43.48;98223.77;2233936;78;20965;-79
2022/04/08 13:52:46;;;;;;;3.17;1.60;;;;;;;12.49;42.78;98219.04;2225466;78;21057;-79
2022/04/08 13:55:48;;;;;;;2.70;1.52;;;;;;;12.47;43.83;98206.48;2231450;78;21037;-79
2022/04/08 13:58:50;;;;;;;1.80;1.32;;;;;;;12.45;43.13;98202.73;2231726;78;21551;-82
2022/04/08 14:01:54;;;;;;;2.45;1.50;;;;;;;12.44;43.19;98194.44;2244678;78;21033;-79
2022/04/08 14:04:57;;;;;;;7.85;4.30;;;;;;;12.41;43.45;98197.55;2230839;78;21044;-79
2022/04/08 14:07:59;;;;;;;7.65;3.42;;;;;;;12.37;42.87;98203.56;2191590;79;21572;-83
2022/04/08 14:11:03;;;;;;;9.43;3.87;;;;;;;12.20;41.97;98194.06;2215689;79;21542;-79
2022/04/08 14:14:06;;;;;;;2.70;1.57;;;;;;;12.05;42.30;98200.58;2210200;79;21586;-80
2022/04/08 14:17:12;;;;;;;22.65;8.63;;;;;;;11.93;41.93;98197.02;2206738;79;21113;-81
2022/04/08 14:20:17;;;;;;;5.20;2.15;;;;;;;11.86;42.58;98197.11;2211097;79;21041;-80
2022/04/08 14:23:21;;;;;;;2.37;1.37;;;;;;;11.76;42.55;98194.64;2210520;79;21085;-80
2022/04/08 14:26:27;;;;;;;2.62;1.50;;;;;;;11.65;42.18;98198.31;2211146;79;21017;-82
2022/04/08 14:29:29;;;;;;;11.90;5.05;;;;;;;11.52;43.46;98211.74;2214127;79;21020;-80
2022/04/08 14:32:37;;;;;;;5.50;3.00;;;;;;;11.52;43.46;98211.74;2213736;79;21017;-77
2022/04/08 14:35:47;;;;;;;14.50;7.35;;;;;;;11.51;43.51;98215.41;2211009;78;21044;-79
2022/04/08 14:38:53;;;;;;;8.18;4.47;;;;;;;11.48;43.25;98221.69;2207627;79;21049;-80
2022/04/08 14:41:55;;;;;;;9.45;5.45;;;;;;;11.41;43.52;98210.61;2213362;79;21689;-79
2022/04/08 14:45:02;;;;;;;3.87;2.62;;;;;;;11.40;43.12;98223.61;2212453;79;21076;-72
2022/04/08 14:48:05;;;;;;;7.40;1.87;;;;;;;11.32;43.51;98225.20;2211285;78;20993;-75
2022/04/08 14:51:08;;;;;;;3.30;1.80;;;;;;;11.32;43.51;98225.20;2154708;79;21539;-74
2022/04/08 14:54:17;;;;;;;2.77;1.75;;;;;;;11.25;43.47;98225.77;2193755;79;21086;-72
2022/04/08 14:57:18;;;;;;;5.75;3.70;;;;;;;11.19;43.71;98220.80;2194796;79;22120;-73
2022/04/08 15:00:22;;;;;;;6.00;3.20;;;;;;;11.16;44.23;98222.56;2191564;79;21026;-74
2022/04/08 15:03:29;;;;;;;8.83;4.80;;;;;;;11.12;45.21;98221.88;2191669;79;21033;-75
2022/04/08 15:06:34;;;;;;;9.10;5.78;;;;;;;10.92;45.80;98228.14;2200250;78;21591;-74